Terminal Aerodrome Forecast
Issued by NWS

Home | Current Version | Previous Version | Text Only | Print | Product List | Glossary Off
Versions: 1 2 3 4 5 6 7 8 9 10 11 12

000
FTUS43 KMPX 221132
TAFAXN
TAF
KAXN 221132Z 2212/2312 05004KT P6SM VCSH SCT040 BKN100
     FM221400 15006KT P6SM VCSH SCT050 BKN120
     FM221600 18007KT P6SM BKN140
     FM221800 21010KT P6SM BKN150
     FM222300 25008KT P6SM SCT150
     FM230500 28006KT P6SM FEW200
     FM231000 29010KT P6SM SCT060=

USA.gov is the U.S. government's official web portal to all federal, state and local government web resources and services.